| time (UTC) | temp F | wind direction | speed MPH | gust MPH | rain 1hr in | rain 24hr in | rain mn in | humidity % | barometer mb |
| 20260507105159 | 47 | 0.0 | 0.0 | 0.00 | 0.00 | 0.00 | 38 | 1008.6 | |
| 20260507104159 | 47 | 0.0 | 0.0 | 0.00 | 0.00 | 0.00 | 37 | 1008.7 | |
| 20260507103158 | 48 | 0.0 | 0.0 | 0.00 | 0.00 | 0.00 | 37 | 1008.6 | |
| 20260507102158 | 47 | 0.0 | 0.0 | 0.00 | 0.00 | 0.00 | 38 | 1008.4 | |
| 20260507101157 | 47 | 0.0 | 0.0 | 0.00 | 0.00 | 0.00 | 37 | 1008.4 | |
| 20260507100157 | 48 | 0.0 | 0.0 | 0.00 | 0.00 | 0.00 | 36 | 1008.3 | |
| 20260507095156 | 49 | 0.0 | 0.0 | 0.00 | 0.00 | 0.00 | 35 | 1008.3 | |
| 20260507094156 | 50 | 0.0 | 0.0 | 0.00 | 0.00 | 0.00 | 33 | 1008.2 | |
| 20260507093155 | 58 | 0.0 | 0.0 | 0.00 | 0.00 | 0.00 | 24 | 1007.7 | |
| 20260507092155 | 67 | 0.0 | 0.0 | 0.00 | 0.00 | 0.00 | 18 | 1007.2 | |
| 20260507091154 | 68 | 0.0 | 0.0 | 0.00 | 0.00 | 0.00 | 17 | 1007.1 | |
| 20260507090154 | 70 | 0.0 | 0.0 | 0.00 | 0.00 | 0.00 | 16 | 1007.0 | |
| 20260507085153 | 67 | 0.0 | 0.0 | 0.00 | 0.00 | 0.00 | 18 | 1006.9 | |
| 20260507084153 | 65 | 0.0 | 0.0 | 0.00 | 0.00 | 0.00 | 18 | 1007.3 | |
| 20260507083152 | 61 | 0.0 | 0.0 | 0.00 | 0.00 | 0.00 | 20 | 1007.2 | |
| 20260507082152 | 59 | 0.0 | 0.0 | 0.00 | 0.00 | 0.00 | 22 | 1007.5 | |
| 20260507081151 | 58 | 0.0 | 0.0 | 0.00 | 0.00 | 0.00 | 23 | 1007.7 | |
| 20260507080151 | 61 | 0.0 | 0.0 | 0.00 | 0.00 | 0.00 | 19 | 1006.9 | |
| 20260507075150 | 61 | 0.0 | 0.0 | 0.00 | 0.00 | 0.00 | 20 | 1007.5 | |
| 20260507074150 | 64 | 0.0 | 0.0 | 0.00 | 0.00 | 0.00 | 18 | 1006.8 | |
| 20260507073149 | 64 | 0.0 | 0.0 | 0.00 | 0.00 | 0.00 | 19 | 1006.7 | |
| 20260507072149 | 63 | 0.0 | 0.0 | 0.00 | 0.00 | 0.00 | 20 | 1006.7 | |
| 20260507071148 | 60 | 0.0 | 0.0 | 0.00 | 0.00 | 0.00 | 22 | 1006.6 | |
| 20260507070148 | 54 | 0.0 | 0.0 | 0.00 | 0.00 | 0.00 | 27 | 1006.7 | |
| 20260507065147 | 51 | 0.0 | 0.0 | 0.00 | 0.00 | 0.00 | 34 | 1006.7 | |
| 20260507064147 | 56 | 0.0 | 0.0 | 0.00 | 0.00 | 0.00 | 28 | 1006.6 | |
| 20260507063146 | 58 | 0.0 | 0.0 | 0.00 | 0.00 | 0.00 | 23 | 1006.4 | |
| 20260507062146 | 58 | 0.0 | 0.0 | 0.00 | 0.00 | 0.00 | 23 | 1006.4 | |
| 20260507061145 | 59 | 0.0 | 0.0 | 0.00 | 0.00 | 0.00 | 22 | 1006.3 | |
| 20260507060145 | 59 | 0.0 | 0.0 | 0.00 | 0.00 | 0.00 | 22 | 1006.2 | |
| 20260507055144 | 58 | 0.0 | 0.0 | 0.00 | 0.00 | 0.00 | 22 | 1006.1 | |
| 20260507054144 | 56 | 0.0 | 0.0 | 0.00 | 0.00 | 0.00 | 25 | 1006.1 | |
| 20260507053143 | 51 | 0.0 | 0.0 | 0.00 | 0.00 | 0.00 | 32 | 1006.3 | |
| 20260507052143 | 55 | 0.0 | 0.0 | 0.00 | 0.00 | 0.00 | 25 | 1006.2 | |
| 20260507051142 | 55 | 0.0 | 0.0 | 0.00 | 0.00 | 0.00 | 27 | 1005.9 | |
| 20260507050142 | 56 | 0.0 | 0.0 | 0.00 | 0.00 | 0.00 | 25 | 1005.8 | |
| 20260507045141 | 52 | 0.0 | 0.0 | 0.00 | 0.00 | 0.00 | 31 | 1005.8 | |
| 20260507044141 | 51 | 0.0 | 0.0 | 0.00 | 0.00 | 0.00 | 32 | 1005.8 | |
| 20260507043140 | 48 | 0.0 | 0.0 | 0.00 | 0.00 | 0.00 | 35 | 1005.9 | |
| 20260507042140 | 46 | 0.0 | 0.0 | 0.00 | 0.00 | 0.00 | 39 | 1006.1 | |
| 20260507041139 | 46 | 0.0 | 0.0 | 0.00 | 0.00 | 0.00 | 43 | 1006.0 | |
| 20260507040139 | 44 | 0.0 | 0.0 | 0.00 | 0.00 | 0.00 | 48 | 1006.0 | |
| 20260507035138 | 43 | 0.0 | 0.0 | 0.00 | 0.00 | 0.00 | 52 | 1006.1 | |
| 20260507034138 | 45 | 0.0 | 0.0 | 0.00 | 0.00 | 0.00 | 48 | 1006.2 | |
| 20260507033137 | 49 | 0.0 | 0.0 | 0.00 | 0.00 | 0.00 | 43 | 1006.0 | |
| 20260507032137 | 49 | 0.0 | 0.0 | 0.00 | 0.00 | 0.00 | 44 | 1005.6 | |
| 20260507031136 | 48 | 0.0 | 0.0 | 0.00 | 0.00 | 0.00 | 45 | 1005.5 | |
| 20260507030136 | 48 | 0.0 | 0.0 | 0.00 | 0.00 | 0.00 | 45 | 1005.5 | |
| 20260507025135 | 47 | 0.0 | 0.0 | 0.00 | 0.00 | 0.00 | 48 | 1005.4 | |
| 20260507024135 | 46 | 0.0 | 0.0 | 0.00 | 0.00 | 0.00 | 50 | 1005.4 | |
| 20260507023134 | 46 | 0.0 | 0.0 | 0.00 | 0.00 | 0.00 | 52 | 1005.3 | |
| 20260507022134 | 45 | 0.0 | 0.0 | 0.00 | 0.00 | 0.00 | 53 | 1005.5 | |
| 20260507021133 | 44 | 0.0 | 0.0 | 0.00 | 0.00 | 0.00 | 58 | 1005.4 | |
| 20260507020133 | 42 | 0.0 | 0.0 | 0.00 | 0.00 | 0.00 | 62 | 1005.4 | |
| 20260507015132 | 41 | 0.0 | 0.0 | 0.00 | 0.00 | 0.00 | 69 | 1005.5 | |
| 20260507014132 | 38 | 0.0 | 0.0 | 0.00 | 0.00 | 0.00 | 81 | 1005.5 | |
| 20260507013132 | 34 | 0.0 | 0.0 | 0.00 | 0.00 | 0.00 | 97 | 1005.7 | |
| 20260507012131 | 34 | 0.0 | 0.0 | 0.00 | 0.00 | 0.00 | 97 | 1005.8 | |
| 20260507011131 | 34 | 0.0 | 0.0 | 0.00 | 0.00 | 0.00 | 99 | 1005.7 | |
| 20260507010130 | 33 | 0.0 | 0.0 | 0.00 | 0.00 | 0.00 | 1005.7 | ||
| 20260507005129 | 32 | 0.0 | 0.0 | 0.00 | 0.00 | 0.00 | 1005.7 | ||
| 20260507004129 | 32 | 0.0 | 0.0 | 0.00 | 0.00 | 0.00 | 1005.8 | ||
| 20260507003128 | 32 | 0.0 | 0.0 | 0.00 | 0.00 | 0.00 | 1005.8 | ||
| 20260507002128 | 32 | 0.0 | 0.0 | 0.00 | 0.00 | 0.00 | 1005.7 | ||
| 20260507001127 | 32 | 0.0 | 0.0 | 0.00 | 0.00 | 0.00 | 1005.6 | ||
| 20260507000127 | 32 | 0.0 | 0.0 | 0.00 | 0.00 | 0.00 | 1005.6 | ||
| 20260506235127 | 32 | 0.0 | 0.0 | 0.00 | 0.00 | 0.00 | 1005.5 | ||
| 20260506234126 | 32 | 0.0 | 0.0 | 0.00 | 0.00 | 0.00 | 1005.5 | ||
| 20260506233126 | 32 | 0.0 | 0.0 | 0.00 | 0.00 | 0.00 | 98 | 1005.3 | |
| 20260506232125 | 33 | 0.0 | 0.0 | 0.00 | 0.00 | 0.00 | 96 | 1005.4 | |
| 20260506231125 | 33 | 0.0 | 0.0 | 0.00 | 0.00 | 0.00 | 92 | 1005.3 | |
| 20260506230124 | 33 | 0.0 | 0.0 | 0.00 | 0.00 | 0.00 | 87 | 1005.3 | |
| 20260506225124 | 34 | 0.0 | 0.0 | 0.00 | 0.00 | 0.00 | 83 | 1005.1 | |
| 20260506224123 | 34 | 0.0 | 0.0 | 0.00 | 0.00 | 0.00 | 80 | 1005.0 | |
| 20260506223123 | 35 | 0.0 | 0.0 | 0.00 | 0.00 | 0.00 | 82 | 1005.1 | |
| 20260506222122 | 34 | 0.0 | 0.0 | 0.00 | 0.00 | 0.00 | 81 | 1005.0 | |
| 20260506221122 | 34 | 0.0 | 0.0 | 0.00 | 0.00 | 0.00 | 81 | 1004.9 | |
| 20260506220121 | 34 | 0.0 | 0.0 | 0.00 | 0.00 | 0.00 | 79 | 1004.9 | |
| 20260506215121 | 35 | 0.0 | 0.0 | 0.00 | 0.00 | 0.00 | 80 | 1004.8 | |
| 20260506214120 | 35 | 0.0 | 0.0 | 0.00 | 0.00 | 0.00 | 79 | 1004.8 | |
| 20260506213120 | 34 | 0.0 | 0.0 | 0.00 | 0.00 | 0.00 | 80 | 1004.8 | |
| 20260506212119 | 35 | 0.0 | 0.0 | 0.00 | 0.00 | 0.00 | 80 | 1004.7 | |
| 20260506211119 | 34 | 0.0 | 0.0 | 0.00 | 0.00 | 0.00 | 81 | 1004.6 | |
| 20260506210118 | 34 | 0.0 | 0.0 | 0.00 | 0.00 | 0.00 | 83 | 1004.5 | |
| 20260506205118 | 34 | 0.0 | 0.0 | 0.00 | 0.00 | 0.00 | 85 | 1004.4 | |
| 20260506204117 | 34 | 0.0 | 0.0 | 0.00 | 0.00 | 0.00 | 83 | 1004.4 | |
| 20260506203117 | 34 | 0.0 | 0.0 | 0.00 | 0.00 | 0.00 | 82 | 1004.2 | |
| 20260506202116 | 34 | 0.0 | 0.0 | 0.00 | 0.00 | 0.00 | 82 | 1004.2 | |
| 20260506201116 | 34 | 0.0 | 0.0 | 0.00 | 0.00 | 0.00 | 80 | 1004.1 | |
| 20260506200115 | 35 | 0.0 | 0.0 | 0.00 | 0.00 | 0.00 | 78 | 1004.1 | |
| 20260506195115 | 35 | 0.0 | 0.0 | 0.00 | 0.00 | 0.00 | 77 | 1004.0 | |
| 20260506194114 | 35 | 0.0 | 0.0 | 0.00 | 0.00 | 0.00 | 75 | 1003.9 | |
| 20260506193114 | 35 | 0.0 | 0.0 | 0.00 | 0.00 | 0.00 | 74 | 1003.8 | |
| 20260506192113 | 35 | 0.0 | 0.0 | 0.00 | 0.00 | 0.00 | 74 | 1003.8 | |
| 20260506191112 | 36 | 0.0 | 0.0 | 0.00 | 0.00 | 0.00 | 73 | 1003.7 | |
| 20260506190111 | 36 | 0.0 | 0.0 | 0.00 | 0.00 | 0.00 | 69 | 1003.6 | |
| 20260506185111 | 36 | 0.0 | 0.0 | 0.00 | 0.00 | 0.00 | 68 | 1003.5 | |
| 20260506184110 | 37 | 0.0 | 0.0 | 0.00 | 0.00 | 0.00 | 66 | 1003.4 | |
| 20260506183110 | 37 | 0.0 | 0.0 | 0.00 | 0.00 | 0.00 | 65 | 1003.3 | |
| 20260506182109 | 37 | 0.0 | 0.0 | 0.00 | 0.00 | 0.00 | 63 | 1003.3 | |
| 20260506181109 | 37 | 0.0 | 0.0 | 0.00 | 0.00 | 0.00 | 61 | 1003.2 | |
| 20260506180108 | 38 | 0.0 | 0.0 | 0.00 | 0.00 | 0.00 | 60 | 1003.2 | |
| 20260506175108 | 38 | 0.0 | 0.0 | 0.00 | 0.00 | 0.00 | 59 | 1003.1 | |
| 20260506174107 | 38 | 0.0 | 0.0 | 0.00 | 0.00 | 0.00 | 57 | 1003.0 | |
| 20260506173107 | 39 | 0.0 | 0.0 | 0.00 | 0.00 | 0.00 | 58 | 1003.0 | |
| 20260506172106 | 39 | 0.0 | 0.0 | 0.00 | 0.00 | 0.00 | 57 | 1003.0 | |
| 20260506171106 | 39 | 0.0 | 0.0 | 0.00 | 0.00 | 0.00 | 58 | 1002.9 | |
| 20260506170105 | 39 | 0.0 | 0.0 | 0.00 | 0.00 | 0.00 | 60 | 1002.9 | |
| 20260506165105 | 39 | 0.0 | 0.0 | 0.00 | 0.00 | 0.00 | 62 | 1002.8 | |
| 20260506164104 | 39 | 0.0 | 0.0 | 0.00 | 0.00 | 0.00 | 62 | 1002.7 | |
| 20260506163104 | 40 | 0.0 | 0.0 | 0.00 | 0.00 | 0.00 | 61 | 1002.6 | |
| 20260506162103 | 40 | 0.0 | 0.0 | 0.00 | 0.00 | 0.00 | 58 | 1002.5 | |
| 20260506161103 | 40 | 0.0 | 0.0 | 0.00 | 0.00 | 0.00 | 57 | 1002.5 | |
| 20260506155102 | 41 | 0.0 | 0.0 | 0.00 | 0.00 | 0.00 | 56 | 1002.3 | |
| 20260506154101 | 42 | 0.0 | 0.0 | 0.00 | 0.00 | 0.00 | 51 | 1002.2 | |
| 20260506153101 | 42 | 0.0 | 0.0 | 0.00 | 0.00 | 0.00 | 51 | 1002.1 | |
| 20260506152100 | 41 | 0.0 | 0.0 | 0.00 | 0.00 | 0.00 | 50 | 1002.0 | |
| 20260506151100 | 41 | 0.0 | 0.0 | 0.00 | 0.00 | 0.00 | 49 | 1001.9 | |
| 20260506150059 | 42 | 0.0 | 0.0 | 0.00 | 0.00 | 0.00 | 48 | 1001.9 | |
| 20260506145059 | 42 | 0.0 | 0.0 | 0.00 | 0.00 | 0.00 | 48 | 1001.8 | |
| 20260506144058 | 42 | 0.0 | 0.0 | 0.00 | 0.00 | 0.00 | 47 | 1001.7 | |
| 20260506143058 | 43 | 0.0 | 0.0 | 0.00 | 0.00 | 0.00 | 46 | 1001.7 | |
| 20260506142057 | 44 | 0.0 | 0.0 | 0.00 | 0.00 | 0.00 | 46 | 1001.5 | |
| 20260506141057 | 43 | 0.0 | 0.0 | 0.00 | 0.00 | 0.00 | 47 | 1001.5 | |
| 20260506140056 | 43 | 0.0 | 0.0 | 0.00 | 0.00 | 0.00 | 48 | 1001.5 | |
| 20260506135056 | 43 | 0.0 | 0.0 | 0.00 | 0.00 | 0.00 | 50 | 1001.2 | |
| 20260506134055 | 44 | 0.0 | 0.0 | 0.00 | 0.00 | 0.00 | 49 | 1001.3 | |
| 20260506133055 | 43 | 0.0 | 0.0 | 0.00 | 0.00 | 0.00 | 48 | 1001.3 | |
| 20260506132055 | 44 | 0.0 | 0.0 | 0.00 | 0.00 | 0.00 | 48 | 1001.2 | |
| 20260506131054 | 43 | 0.0 | 0.0 | 0.00 | 0.00 | 0.00 | 48 | 1001.1 | |
| 20260506130054 | 43 | 0.0 | 0.0 | 0.00 | 0.00 | 0.00 | 49 | 1001.1 | |
| 20260506125053 | 43 | 0.0 | 0.0 | 0.00 | 0.00 | 0.00 | 48 | 1001.0 | |
| 20260506124053 | 42 | 0.0 | 0.0 | 0.00 | 0.00 | 0.00 | 50 | 1001.0 | |
| 20260506123052 | 42 | 0.0 | 0.0 | 0.00 | 0.00 | 0.00 | 51 | 1001.0 | |
| 20260506122052 | 43 | 0.0 | 0.0 | 0.00 | 0.00 | 0.00 | 51 | 1000.8 | |
| 20260506121051 | 42 | 0.0 | 0.0 | 0.00 | 0.00 | 0.00 | 53 | 1000.7 | |
| 20260506120051 | 41 | 0.0 | 0.0 | 0.00 | 0.00 | 0.00 | 60 | 1000.7 | |
| 20260506115050 | 41 | 0.0 | 0.0 | 0.00 | 0.00 | 0.00 | 60 | 1000.7 | |
| 20260506114050 | 44 | 0.0 | 0.0 | 0.00 | 0.00 | 0.00 | 49 | 1000.3 | |
| 20260506113049 | 46 | 0.0 | 0.0 | 0.00 | 0.00 | 0.00 | 48 | 100.0 | |
| 20260506112049 | 44 | 0.0 | 0.0 | 0.00 | 0.00 | 0.00 | 50 | 100.0 | |
| 20260506111048 | 43 | 0.0 | 0.0 | 0.00 | 0.00 | 0.00 | 53 | 100.0 | |
| 20260506110048 | 42 | 0.0 | 0.0 | 0.00 | 0.00 | 0.00 | 57 | 100.0 |